Time;durP1;ratioP1;P1;durP2;ratioP2;P2;SDS_P1;SDS_P2;PMS_P1;PMS_P2;Temp;Humidity;BMP_temperature;BMP_pressure;BME280_temperature;BME280_humidity;BME280_pressure;Samples;Min_cycle;Max_cycle;Signal;HPM_P1;HPM_P2
2021/03/27 00:00:43;;;;;;;15.50;6.20;;;;;;;;;;5057103;28;38818;-81
2021/03/27 00:03:18;;;;;;;16.17;7.27;;;;;;;;;;5058409;28;37721;-81
2021/03/27 00:05:55;;;;;;;15.37;6.50;;;;;;;;;;5054463;28;39175;-81
2021/03/27 00:08:32;;;;;;;14.60;7.30;;;;;;;;;;5069332;28;37322;-81
2021/03/27 00:11:02;;;;;;;16.30;6.97;;;;;;;;;;5068963;28;38021;-81
2021/03/27 00:13:31;;;;;;;15.67;8.00;;;;;;;;;;5059152;28;48726;-81
2021/03/27 00:16:02;;;;;;;16.80;7.23;;;;;;;;;;5059932;28;39561;-81
2021/03/27 00:18:41;;;;;;;12.33;6.10;;;;;;;;;;5054998;28;48276;-81
2021/03/27 00:21:26;;;;;;;14.60;6.03;;;;;;;;;;5055495;28;39932;-81
2021/03/27 00:24:16;;;;;;;10.23;4.83;;;;;;;;;;5055597;28;37737;-82
2021/03/27 00:26:56;;;;;;;12.53;4.73;;;;;;;;;;5052848;28;48798;-81
2021/03/27 00:29:25;;;;;;;12.60;4.50;;;;;;;;;;5058675;28;35943;-81
2021/03/27 00:32:11;;;;;;;12.13;3.97;;;;;;;;;;5057905;28;40602;-82
2021/03/27 00:34:43;;;;;;;14.57;4.67;;;;;;;;;;5046055;28;46565;-81
2021/03/27 00:37:12;;;;;;;18.67;5.60;;;;;;;;;;5058466;28;38443;-81
2021/03/27 00:39:54;;;;;;;18.27;5.47;;;;;;;;;;5058235;28;37070;-81
2021/03/27 00:42:23;;;;;;;15.07;5.80;;;;;;;;;;5069262;28;37879;-81
2021/03/27 00:44:59;;;;;;;23.53;7.53;;;;;;;;;;5060779;28;37756;-81
2021/03/27 00:47:29;;;;;;;25.83;7.40;;;;;;;;;;5076914;28;38620;-81
2021/03/27 00:49:58;;;;;;;15.50;7.13;;;;;;;;;;5062545;28;35393;-82
2021/03/27 00:52:26;;;;;;;20.73;9.43;;;;;;;;;;5063997;28;38591;-82
2021/03/27 00:54:58;;;;;;;22.17;9.23;;;;;;;;;;5057411;28;39472;-82
2021/03/27 00:57:27;;;;;;;26.50;9.30;;;;;;;;;;5059193;28;37331;-82
2021/03/27 01:00:08;;;;;;;21.07;8.83;;;;;;;;;;5058362;28;37104;-82
2021/03/27 01:02:36;;;;;;;22.10;8.73;;;;;;;;;;5056963;28;47990;-81
2021/03/27 01:05:05;;;;;;;23.87;8.10;;;;;;;;;;5058550;28;37801;-80
2021/03/27 01:07:32;;;;;;;19.17;7.87;;;;;;;;;;5057140;28;37879;-81
2021/03/27 01:10:01;;;;;;;21.77;7.73;;;;;;;;;;5071725;28;36162;-82
2021/03/27 01:12:47;;;;;;;25.13;7.23;;;;;;;;;;5072637;28;46660;-82
2021/03/27 01:15:17;;;;;;;17.20;7.50;;;;;;;;;;5073331;28;37964;-81
2021/03/27 01:17:45;;;;;;;22.13;7.40;;;;;;;;;;5058426;28;38263;-81
2021/03/27 01:20:15;;;;;;;19.57;7.27;;;;;;;;;;5072573;28;36716;-81
2021/03/27 01:22:42;;;;;;;22.13;6.73;;;;;;;;;;5057654;28;38760;-81
2021/03/27 01:25:09;;;;;;;26.73;6.50;;;;;;;;;;5073144;28;37728;-81
2021/03/27 01:27:52;;;;;;;25.37;6.47;;;;;;;;;;5060069;28;39107;-82
2021/03/27 01:30:24;;;;;;;26.67;6.33;;;;;;;;;;5054677;28;35646;-81
2021/03/27 01:32:58;;;;;;;23.27;6.97;;;;;;;;;;5057981;28;38755;-81
2021/03/27 01:35:39;;;;;;;15.83;5.30;;;;;;;;;;5060406;28;38958;-81
2021/03/27 01:38:08;;;;;;;21.13;6.20;;;;;;;;;;5058231;28;37204;-81
2021/03/27 01:40:53;;;;;;;20.47;6.47;;;;;;;;;;5059064;28;37357;-82
2021/03/27 01:43:35;;;;;;;20.90;6.17;;;;;;;;;;5062078;28;39608;-81
2021/03/27 01:46:04;;;;;;;16.70;5.50;;;;;;;;;;5062806;28;38696;-81
2021/03/27 01:48:34;;;;;;;21.43;5.53;;;;;;;;;;5063677;28;48796;-81
2021/03/27 01:51:06;;;;;;;20.60;5.83;;;;;;;;;;5071359;28;35261;-82
2021/03/27 01:53:54;;;;;;;17.63;6.38;;;;;;;;;;5059027;28;48375;-81
2021/03/27 01:56:39;;;;;;;18.07;6.20;;;;;;;;;;5061291;28;36869;-81
2021/03/27 01:59:14;;;;;;;19.87;4.77;;;;;;;;;;5059357;28;38594;-81
2021/03/27 02:01:50;;;;;;;17.33;5.00;;;;;;;;;;5077791;28;36074;-82
2021/03/27 02:04:20;;;;;;;16.33;4.40;;;;;;;;;;5064326;27;39020;-82
2021/03/27 02:06:56;;;;;;;14.67;4.63;;;;;;;;;;5066990;28;37668;-81
2021/03/27 02:09:29;;;;;;;24.97;5.17;;;;;;;;;;5057389;28;38640;-81
2021/03/27 02:12:08;;;;;;;17.70;4.60;;;;;;;;;;5073690;28;37434;-82
2021/03/27 02:14:47;;;;;;;15.30;4.57;;;;;;;;;;5073271;28;47639;-82
2021/03/27 02:17:22;;;;;;;16.60;4.20;;;;;;;;;;5072306;28;37597;-81
2021/03/27 02:19:57;;;;;;;14.33;4.40;;;;;;;;;;5089133;28;38780;-81
2021/03/27 02:22:24;;;;;;;12.27;3.47;;;;;;;;;;5072630;28;35566;-81
2021/03/27 02:25:02;;;;;;;22.03;4.33;;;;;;;;;;5089401;28;37982;-81
2021/03/27 02:27:34;;;;;;;17.57;3.50;;;;;;;;;;5073800;28;48741;-81
2021/03/27 02:30:26;;;;;;;21.02;4.55;;;;;;;;;;5069611;28;37661;-82
2021/03/27 02:33:15;;;;;;;17.43;3.70;;;;;;;;;;5069307;28;48453;-81
2021/03/27 02:35:51;;;;;;;17.83;4.13;;;;;;;;;;5071127;28;47078;-81
2021/03/27 02:38:31;;;;;;;19.77;4.20;;;;;;;;;;5087494;28;39718;-82
2021/03/27 02:41:16;;;;;;;18.23;3.93;;;;;;;;;;5074341;28;41496;-81
2021/03/27 02:43:44;;;;;;;25.27;4.13;;;;;;;;;;5085535;28;48502;-81
2021/03/27 02:46:26;;;;;;;22.50;3.93;;;;;;;;;;5064174;28;37511;-81
2021/03/27 02:49:05;;;;;;;13.65;2.97;;;;;;;;;;5059200;28;38034;-81
2021/03/27 02:51:31;;;;;;;14.43;2.90;;;;;;;;;;5062534;28;48398;-81
2021/03/27 02:53:57;;;;;;;17.80;3.20;;;;;;;;;;5074658;28;36923;-81
2021/03/27 02:56:23;;;;;;;18.00;3.30;;;;;;;;;;5059183;28;37734;-81
2021/03/27 02:58:54;;;;;;;19.87;2.70;;;;;;;;;;5062811;27;38565;-81
2021/03/27 03:01:29;;;;;;;12.07;2.37;;;;;;;;;;5072815;28;38429;-81
2021/03/27 03:04:22;;;;;;;13.10;2.20;;;;;;;;;;5075305;28;36806;-81
2021/03/27 03:07:05;;;;;;;20.40;3.08;;;;;;;;;;5028035;28;47056;-81
2021/03/27 03:09:37;;;;;;;16.13;2.33;;;;;;;;;;5054907;28;48981;-82
2021/03/27 03:12:06;;;;;;;10.30;2.15;;;;;;;;;;5058749;28;37954;-80
2021/03/27 03:14:52;;;;;;;15.93;3.27;;;;;;;;;;5059469;28;38241;-80
2021/03/27 03:17:18;;;;;;;15.40;2.57;;;;;;;;;;5061294;28;39081;-81
2021/03/27 03:19:48;;;;;;;12.07;2.13;;;;;;;;;;5056229;28;36850;-81
2021/03/27 03:22:14;;;;;;;14.17;3.17;;;;;;;;;;5058526;28;38005;-81
2021/03/27 03:24:44;;;;;;;21.83;2.87;;;;;;;;;;5056243;28;37133;-81
2021/03/27 03:27:16;;;;;;;14.77;2.60;;;;;;;;;;5074406;28;39367;-81
2021/03/27 03:30:15;;;;;;;17.92;2.38;;;;;;;;;;5062190;28;39182;-82
2021/03/27 03:32:44;;;;;;;14.63;2.57;;;;;;;;;;5038360;28;49083;-81
2021/03/27 03:35:26;;;;;;;21.27;2.90;;;;;;;;;;5058108;28;37214;-81
2021/03/27 03:38:00;;;;;;;15.60;2.17;;;;;;;;;;5075190;28;40755;-81
2021/03/27 03:40:49;;;;;;;12.67;2.27;;;;;;;;;;5061990;28;48019;-81
2021/03/27 03:43:19;;;;;;;13.67;2.83;;;;;;;;;;5074503;28;37570;-81
2021/03/27 03:46:10;;;;;;;12.87;2.90;;;;;;;;;;5057281;28;37199;-81
2021/03/27 03:48:50;;;;;;;13.13;2.53;;;;;;;;;;5061729;28;47467;-81
2021/03/27 03:51:16;;;;;;;14.93;2.33;;;;;;;;;;5057832;28;39579;-82
2021/03/27 03:53:56;;;;;;;14.00;3.30;;;;;;;;;;5050939;28;36638;-81
2021/03/27 03:56:33;;;;;;;20.40;3.00;;;;;;;;;;5070142;28;35823;-81
2021/03/27 03:59:13;;;;;;;16.97;3.17;;;;;;;;;;5060007;28;38677;-82
2021/03/27 04:01:43;;;;;;;21.03;3.03;;;;;;;;;;5061954;28;48782;-82
2021/03/27 04:04:09;;;;;;;22.10;3.30;;;;;;;;;;5057376;28;37040;-82
2021/03/27 04:06:38;;;;;;;24.40;4.67;;;;;;;;;;5058761;28;36178;-81
2021/03/27 04:09:14;;;;;;;24.17;3.07;;;;;;;;;;5057578;28;38037;-81
2021/03/27 04:11:52;;;;;;;19.90;3.80;;;;;;;;;;5060367;28;39738;-81
2021/03/27 04:14:28;;;;;;;20.80;4.93;;;;;;;;;;5060403;28;38619;-81
2021/03/27 04:17:00;;;;;;;17.20;3.10;;;;;;;;;;5059103;28;37713;-81
2021/03/27 04:19:27;;;;;;;22.23;3.67;;;;;;;;;;5054171;28;38120;-81
2021/03/27 04:22:01;;;;;;;31.87;4.07;;;;;;;;;;5053074;28;37542;-81
2021/03/27 04:24:29;;;;;;;26.67;3.77;;;;;;;;;;5056730;28;47502;-81
2021/03/27 04:26:58;;;;;;;24.63;3.20;;;;;;;;;;5060798;28;37667;-82
2021/03/27 04:29:48;;;;;;;20.13;3.07;;;;;;;;;;5067465;28;38771;-81
2021/03/27 04:32:26;;;;;;;26.17;3.80;;;;;;;;;;5056186;28;38692;-81
2021/03/27 04:34:56;;;;;;;21.50;3.47;;;;;;;;;;5063436;28;39243;-81
2021/03/27 04:37:33;;;;;;;14.43;3.50;;;;;;;;;;5065185;28;35981;-81
2021/03/27 04:40:23;;;;;;;17.00;3.47;;;;;;;;;;5076108;28;37875;-81
2021/03/27 04:42:54;;;;;;;19.80;2.60;;;;;;;;;;5066685;28;47412;-81
2021/03/27 04:45:20;;;;;;;12.13;2.20;;;;;;;;;;5066014;28;39504;-81
2021/03/27 04:47:51;;;;;;;7.53;1.40;;;;;;;;;;5063331;28;36473;-81
2021/03/27 04:50:27;;;;;;;7.77;2.20;;;;;;;;;;5070973;28;39392;-82
2021/03/27 04:52:56;;;;;;;7.57;1.53;;;;;;;;;;5069846;28;38335;-81
2021/03/27 04:55:28;;;;;;;9.07;1.60;;;;;;;;;;5067616;28;37758;-81
2021/03/27 04:58:07;;;;;;;5.47;1.13;;;;;;;;;;5054784;28;36579;-81
2021/03/27 05:00:44;;;;;;;5.67;1.23;;;;;;;;;;5055867;28;48192;-82
2021/03/27 05:03:13;;;;;;;5.23;0.90;;;;;;;;;;5051586;28;38243;-80
2021/03/27 05:05:46;;;;;;;8.00;1.07;;;;;;;;;;5071159;28;37645;-81
2021/03/27 05:08:15;;;;;;;5.93;1.00;;;;;;;;;;5057651;28;36603;-80
2021/03/27 05:10:46;;;;;;;5.20;0.87;;;;;;;;;;5055354;28;38044;-81
2021/03/27 05:13:18;;;;;;;5.60;1.20;;;;;;;;;;5069054;28;38028;-80
2021/03/27 05:15:48;;;;;;;8.80;1.33;;;;;;;;;;5054850;28;39343;-80
2021/03/27 05:18:18;;;;;;;7.67;1.20;;;;;;;;;;5056431;27;37777;-80
2021/03/27 05:20:45;;;;;;;9.80;1.63;;;;;;;;;;5052378;28;39925;-80
2021/03/27 05:23:14;;;;;;;8.40;1.60;;;;;;;;;;5056205;28;38521;-80
2021/03/27 05:25:59;;;;;;;13.13;1.83;;;;;;;;;;5068935;28;38526;-80
2021/03/27 05:28:50;;;;;;;8.57;1.80;;;;;;;;;;5057240;28;37062;-81
2021/03/27 05:31:36;;;;;;;9.73;1.80;;;;;;;;;;5067100;28;39712;-80
2021/03/27 05:34:02;;;;;;;13.07;2.30;;;;;;;;;;5056606;28;38080;-79
2021/03/27 05:36:35;;;;;;;18.83;2.40;;;;;;;;;;5055291;28;38959;-80
2021/03/27 05:39:10;;;;;;;13.85;2.30;;;;;;;;;;5067936;28;36670;-80
2021/03/27 05:41:43;;;;;;;19.10;3.27;;;;;;;;;;5071868;28;47189;-80
2021/03/27 05:44:28;;;;;;;21.02;4.03;;;;;;;;;;5057738;28;37641;-80
2021/03/27 05:46:55;;;;;;;16.93;3.10;;;;;;;;;;5070694;28;37228;-80
2021/03/27 05:49:40;;;;;;;19.07;2.77;;;;;;;;;;5056042;28;38169;-80
2021/03/27 05:52:25;;;;;;;15.63;2.80;;;;;;;;;;5055886;28;39233;-80
2021/03/27 05:54:52;;;;;;;18.03;2.60;;;;;;;;;;5072399;28;38244;-80
2021/03/27 05:57:18;;;;;;;23.90;3.30;;;;;;;;;;5058587;28;39957;-80
2021/03/27 05:59:50;;;;;;;16.80;3.23;;;;;;;;;;5061225;28;37420;-80
2021/03/27 06:02:28;;;;;;;13.88;3.08;;;;;;;;;;5058494;27;40233;-80
2021/03/27 06:05:14;;;;;;;20.43;3.77;;;;;;;;;;5066134;28;37564;-80
2021/03/27 06:08:04;;;;;;;16.17;3.13;;;;;;;;;;5060973;28;47897;-80
2021/03/27 06:10:39;;;;;;;21.93;3.17;;;;;;;;;;5074233;28;47935;-80
2021/03/27 06:13:15;;;;;;;22.77;3.07;;;;;;;;;;5058526;28;37824;-79
2021/03/27 06:15:44;;;;;;;25.50;3.93;;;;;;;;;;5057743;28;38517;-80
2021/03/27 06:18:29;;;;;;;25.03;3.63;;;;;;;;;;5058289;28;38517;-80
2021/03/27 06:21:14;;;;;;;16.07;3.07;;;;;;;;;;5080681;28;36807;-81
2021/03/27 06:23:51;;;;;;;25.97;3.30;;;;;;;;;;5074958;28;46740;-81
2021/03/27 06:26:29;;;;;;;22.93;3.00;;;;;;;;;;5089409;28;37540;-81
2021/03/27 06:29:05;;;;;;;22.33;3.23;;;;;;;;;;5066954;28;38690;-81
2021/03/27 06:31:39;;;;;;;24.47;2.93;;;;;;;;;;5073662;28;47494;-81
2021/03/27 06:34:05;;;;;;;24.90;3.70;;;;;;;;;;5070488;28;40753;-81
2021/03/27 06:36:44;;;;;;;28.47;4.97;;;;;;;;;;5071661;28;39271;-81
2021/03/27 06:39:29;;;;;;;24.80;4.83;;;;;;;;;;5073969;28;38180;-78
2021/03/27 06:42:14;;;;;;;18.27;3.57;;;;;;;;;;5063748;28;37960;-80
2021/03/27 06:44:59;;;;;;;23.17;3.00;;;;;;;;;;5057910;28;47048;-80
2021/03/27 06:47:44;;;;;;;26.97;5.40;;;;;;;;;;5077617;28;38482;-80
2021/03/27 06:50:29;;;;;;;20.50;4.13;;;;;;;;;;5061778;28;37568;-80
2021/03/27 06:53:19;;;;;;;20.57;3.60;;;;;;;;;;5058848;28;35738;-80
2021/03/27 06:55:49;;;;;;;17.30;3.00;;;;;;;;;;5014688;28;47390;-80
2021/03/27 06:58:30;;;;;;;23.10;5.27;;;;;;;;;;5063617;28;39280;-81
2021/03/27 07:01:09;;;;;;;24.87;5.30;;;;;;;;;;5062049;28;38382;-80
2021/03/27 07:03:52;;;;;;;21.17;4.57;;;;;;;;;;5051994;28;47845;-79
2021/03/27 07:06:37;;;;;;;18.58;3.47;;;;;;;;;;5056870;28;40124;-78
2021/03/27 07:09:22;;;;;;;18.27;4.07;;;;;;;;;;5060615;27;37039;-78
2021/03/27 07:12:02;;;;;;;22.47;3.83;;;;;;;;;;5058136;28;37885;-78
2021/03/27 07:14:47;;;;;;;21.20;3.43;;;;;;;;;;5075618;28;49070;-79
2021/03/27 07:17:31;;;;;;;18.57;2.93;;;;;;;;;;5070137;28;38604;-79
2021/03/27 07:20:04;;;;;;;27.30;3.07;;;;;;;;;;5072509;28;39186;-82
2021/03/27 07:22:39;;;;;;;22.05;4.00;;;;;;;;;;5055668;28;47199;-80
2021/03/27 07:25:24;;;;;;;19.27;3.20;;;;;;;;;;5055165;28;36420;-80
2021/03/27 07:27:51;;;;;;;20.43;3.60;;;;;;;;;;5073844;28;37583;-82
2021/03/27 07:30:17;;;;;;;18.13;2.93;;;;;;;;;;5058103;28;37317;-82
2021/03/27 07:32:56;;;;;;;17.77;3.10;;;;;;;;;;5057905;28;37379;-82
2021/03/27 07:35:44;;;;;;;17.10;2.87;;;;;;;;;;5059166;28;35857;-80
2021/03/27 07:38:18;;;;;;;13.83;2.73;;;;;;;;;;5059459;28;39218;-82
2021/03/27 07:41:20;;;;;;;15.40;2.70;;;;;;;;;;5065830;28;39029;-82
2021/03/27 07:44:05;;;;;;;17.50;3.13;;;;;;;;;;4981433;28;49004;-79
2021/03/27 07:46:49;;;;;;;18.93;2.63;;;;;;;;;;5052361;28;48503;-80
2021/03/27 07:49:47;;;;;;;18.40;3.77;;;;;;;;;;5055458;28;39769;-82
2021/03/27 07:52:13;;;;;;;16.43;2.43;;;;;;;;;;5074671;28;38362;-80
2021/03/27 07:54:59;;;;;;;17.83;2.67;;;;;;;;;;5062666;28;37705;-80
2021/03/27 07:57:25;;;;;;;17.77;2.77;;;;;;;;;;5077225;28;37152;-80
2021/03/27 08:00:12;;;;;;;21.10;3.30;;;;;;;;;;5063097;28;39015;-81
2021/03/27 08:02:47;;;;;;;15.87;2.50;;;;;;;;;;5050776;28;47514;-81
2021/03/27 08:05:32;;;;;;;12.63;2.40;;;;;;;;;;5077946;28;36767;-82
2021/03/27 08:08:17;;;;;;;17.30;2.60;;;;;;;;;;5068822;28;35969;-82
2021/03/27 08:10:48;;;;;;;12.63;3.13;;;;;;;;;;5071365;28;47694;-83
2021/03/27 08:13:23;;;;;;;15.67;3.03;;;;;;;;;;5070082;28;37524;-82
2021/03/27 08:16:04;;;;;;;13.10;2.80;;;;;;;;;;5066791;28;38671;-83
2021/03/27 08:18:49;;;;;;;18.20;3.23;;;;;;;;;;5076326;28;47774;-83
2021/03/27 08:21:35;;;;;;;14.67;2.73;;;;;;;;;;5072845;28;39388;-81
2021/03/27 08:24:11;;;;;;;14.90;2.77;;;;;;;;;;5063386;28;38796;-80
2021/03/27 08:26:44;;;;;;;12.60;2.40;;;;;;;;;;5068053;28;39527;-81
2021/03/27 08:29:29;;;;;;;19.23;2.13;;;;;;;;;;5068411;28;37064;-82
2021/03/27 08:32:14;;;;;;;16.23;3.20;;;;;;;;;;5074817;28;38628;-83
2021/03/27 08:34:59;;;;;;;14.77;2.87;;;;;;;;;;5057323;28;48609;-82
2021/03/27 08:37:44;;;;;;;13.77;3.57;;;;;;;;;;5070012;28;38912;-83
2021/03/27 08:40:29;;;;;;;13.60;2.57;;;;;;;;;;5063258;28;36457;-83
2021/03/27 08:46:01;;;;;;;13.63;2.37;;;;;;;;;;5069152;28;20041;-80
2021/03/27 08:48:46;;;;;;;16.67;2.33;;;;;;;;;;5077145;28;38275;-81
2021/03/27 08:51:12;;;;;;;18.60;2.93;;;;;;;;;;5064662;28;39036;-81
2021/03/27 08:53:45;;;;;;;13.30;2.40;;;;;;;;;;5063355;28;40674;-80
2021/03/27 08:56:14;;;;;;;14.65;2.55;;;;;;;;;;5066664;28;38973;-80
2021/03/27 08:58:40;;;;;;;12.13;2.57;;;;;;;;;;5067197;28;40003;-79
2021/03/27 09:01:12;;;;;;;11.23;2.40;;;;;;;;;;5065886;28;37616;-80
2021/03/27 09:03:41;;;;;;;8.53;2.60;;;;;;;;;;5070701;28;39534;-81
2021/03/27 09:06:28;;;;;;;12.90;2.50;;;;;;;;;;5070612;28;38885;-80
2021/03/27 09:09:04;;;;;;;10.77;2.50;;;;;;;;;;5068675;28;39134;-80
2021/03/27 09:11:49;;;;;;;17.17;2.50;;;;;;;;;;5043719;28;47025;-80
2021/03/27 09:14:22;;;;;;;14.17;2.60;;;;;;;;;;5066034;28;39763;-80
2021/03/27 09:16:58;;;;;;;14.50;2.90;;;;;;;;;;5063772;28;39475;-79
2021/03/27 09:19:36;;;;;;;15.27;2.80;;;;;;;;;;5066061;28;38760;-79
2021/03/27 09:22:02;;;;;;;18.80;2.77;;;;;;;;;;5064588;28;36945;-80
2021/03/27 09:24:31;;;;;;;13.87;2.83;;;;;;;;;;5072183;28;41044;-80
2021/03/27 09:27:04;;;;;;;15.60;2.47;;;;;;;;;;5063086;28;37805;-80
2021/03/27 09:29:33;;;;;;;11.98;2.88;;;;;;;;;;5075899;28;48116;-80
2021/03/27 09:32:12;;;;;;;13.53;1.87;;;;;;;;;;5062592;28;37738;-80
2021/03/27 09:35:07;;;;;;;10.57;2.07;;;;;;;;;;5066407;28;48314;-80
2021/03/27 09:37:53;;;;;;;16.43;2.90;;;;;;;;;;5066270;28;47309;-81
2021/03/27 09:40:38;;;;;;;14.23;2.33;;;;;;;;;;5066885;28;39420;-80
2021/03/27 09:43:13;;;;;;;14.43;2.30;;;;;;;;;;5064068;28;37985;-79
2021/03/27 09:45:54;;;;;;;16.07;3.03;;;;;;;;;;5066751;28;39454;-80
2021/03/27 09:48:32;;;;;;;12.07;2.47;;;;;;;;;;5065879;28;39475;-80
2021/03/27 09:51:17;;;;;;;17.80;2.80;;;;;;;;;;5066610;28;37623;-80
2021/03/27 09:53:56;;;;;;;12.43;3.10;;;;;;;;;;5057600;28;48479;-79
2021/03/27 09:56:40;;;;;;;11.27;2.50;;;;;;;;;;5058917;28;39921;-80
2021/03/27 09:59:06;;;;;;;16.70;2.87;;;;;;;;;;5067829;28;37594;-79
2021/03/27 10:01:46;;;;;;;14.60;2.37;;;;;;;;;;5053154;28;38975;-80
2021/03/27 10:04:30;;;;;;;18.47;3.13;;;;;;;;;;5064459;28;37221;-80
2021/03/27 10:07:04;;;;;;;8.80;1.93;;;;;;;;;;5070524;28;37769;-79
2021/03/27 10:09:53;;;;;;;13.83;2.43;;;;;;;;;;5067332;28;47223;-79
2021/03/27 10:12:28;;;;;;;11.87;2.27;;;;;;;;;;5060682;28;40367;-80
2021/03/27 10:14:57;;;;;;;19.67;2.20;;;;;;;;;;5068728;28;37712;-80
2021/03/27 10:17:27;;;;;;;15.37;2.93;;;;;;;;;;5056685;28;40238;-79
2021/03/27 10:20:03;;;;;;;13.50;2.03;;;;;;;;;;5077253;28;37712;-80
2021/03/27 10:22:41;;;;;;;16.43;2.83;;;;;;;;;;5072009;27;47363;-79
2021/03/27 10:25:13;;;;;;;11.17;2.50;;;;;;;;;;5064520;28;38724;-80
2021/03/27 10:27:42;;;;;;;10.93;2.10;;;;;;;;;;5076585;28;39807;-79
2021/03/27 10:30:20;;;;;;;9.93;2.20;;;;;;;;;;5059939;28;39077;-80
2021/03/27 10:32:53;;;;;;;13.18;2.47;;;;;;;;;;5068836;28;40003;-80
2021/03/27 10:35:38;;;;;;;13.98;2.60;;;;;;;;;;5066673;28;35469;-79
2021/03/27 10:38:08;;;;;;;17.90;3.10;;;;;;;;;;5057875;28;39683;-79
2021/03/27 10:40:47;;;;;;;15.70;2.57;;;;;;;;;;5071569;28;38994;-79
2021/03/27 10:43:13;;;;;;;15.43;3.20;;;;;;;;;;5064232;28;39057;-79
2021/03/27 10:45:48;;;;;;;12.82;2.75;;;;;;;;;;5068566;28;37049;-79
2021/03/27 10:48:37;;;;;;;15.07;3.55;;;;;;;;;;5069840;28;42634;-79
2021/03/27 10:51:10;;;;;;;12.43;1.93;;;;;;;;;;5044738;28;37594;-79
2021/03/27 10:53:48;;;;;;;14.23;2.67;;;;;;;;;;5068313;28;47167;-79
2021/03/27 10:56:33;;;;;;;13.20;2.80;;;;;;;;;;5067935;28;36773;-79
2021/03/27 10:59:05;;;;;;;13.77;2.23;;;;;;;;;;5061669;28;39393;-80
2021/03/27 11:01:50;;;;;;;13.90;2.42;;;;;;;;;;5071837;28;46704;-79
2021/03/27 11:04:26;;;;;;;14.20;3.07;;;;;;;;;;5053087;28;38362;-80
2021/03/27 11:06:56;;;;;;;13.35;3.08;;;;;;;;;;5065776;28;36913;-79
2021/03/27 11:09:41;;;;;;;14.30;3.33;;;;;;;;;;5066976;28;39594;-79
2021/03/27 11:12:07;;;;;;;14.15;3.10;;;;;;;;;;5065809;28;40842;-79
2021/03/27 11:14:36;;;;;;;16.92;2.63;;;;;;;;;;5068124;28;39227;-80
2021/03/27 11:17:12;;;;;;;17.88;3.50;;;;;;;;;;5051047;28;36670;-79
2021/03/27 11:19:42;;;;;;;17.47;3.10;;;;;;;;;;5052515;28;39311;-79
2021/03/27 11:22:11;;;;;;;16.52;2.35;;;;;;;;;;5066747;28;39580;-79
2021/03/27 11:24:59;;;;;;;16.50;2.60;;;;;;;;;;5067176;28;39249;-79
2021/03/27 11:27:28;;;;;;;19.17;2.73;;;;;;;;;;5068837;28;37949;-79
2021/03/27 11:30:27;;;;;;;16.97;3.03;;;;;;;;;;5068039;28;39471;-79
2021/03/27 11:33:05;;;;;;;20.53;3.13;;;;;;;;;;5033198;28;47231;-80
2021/03/27 11:35:35;;;;;;;12.27;2.57;;;;;;;;;;5068008;28;47585;-79
2021/03/27 11:38:10;;;;;;;17.57;2.97;;;;;;;;;;5069381;28;35328;-79
2021/03/27 11:40:52;;;;;;;11.33;2.47;;;;;;;;;;5073715;28;46965;-79
2021/03/27 11:43:44;;;;;;;15.73;2.50;;;;;;;;;;5070333;28;37671;-80
2021/03/27 11:46:13;;;;;;;15.77;3.25;;;;;;;;;;5067433;28;39224;-79
2021/03/27 11:48:58;;;;;;;19.42;3.22;;;;;;;;;;5069201;28;37905;-80
2021/03/27 11:51:29;;;;;;;17.20;2.70;;;;;;;;;;5070132;28;39556;-80
2021/03/27 11:54:14;;;;;;;15.35;2.92;;;;;;;;;;5060117;28;39516;-80
2021/03/27 11:56:53;;;;;;;15.60;2.88;;;;;;;;;;5068852;28;47672;-80
2021/03/27 12:02:37;;;;;;;17.27;2.60;;;;;;;;;;5070788;28;40589;-80
2021/03/27 12:05:15;;;;;;;21.10;3.38;;;;;;;;;;5058684;28;39651;-80
2021/03/27 12:07:50;;;;;;;11.68;2.63;;;;;;;;;;5069796;28;40335;-78
2021/03/27 12:10:20;;;;;;;17.53;3.87;;;;;;;;;;5069588;28;37694;-79
2021/03/27 12:12:46;;;;;;;15.63;2.72;;;;;;;;;;5069705;28;39964;-78
2021/03/27 12:15:16;;;;;;;13.83;2.63;;;;;;;;;;5068877;28;39867;-79
2021/03/27 12:17:48;;;;;;;16.27;2.70;;;;;;;;;;5069823;28;40460;-80
2021/03/27 12:20:25;;;;;;;20.63;3.42;;;;;;;;;;5068073;28;36090;-79
2021/03/27 12:22:54;;;;;;;18.63;2.90;;;;;;;;;;5060497;28;40387;-79
2021/03/27 12:25:45;;;;;;;12.13;2.03;;;;;;;;;;5068349;28;38935;-79
2021/03/27 12:28:24;;;;;;;12.77;2.80;;;;;;;;;;5070748;28;38949;-81
2021/03/27 12:30:57;;;;;;;13.77;2.80;;;;;;;;;;5051928;28;37220;-81
2021/03/27 12:33:29;;;;;;;17.95;2.90;;;;;;;;;;5067353;28;39232;-79
2021/03/27 12:36:19;;;;;;;14.77;3.13;;;;;;;;;;5064502;28;39017;-80
2021/03/27 12:38:45;;;;;;;19.95;2.78;;;;;;;;;;5058922;28;47692;-79
2021/03/27 12:41:17;;;;;;;9.95;2.70;;;;;;;;;;5052511;28;37927;-79
2021/03/27 12:43:52;;;;;;;15.30;3.03;;;;;;;;;;5069897;28;39509;-78
2021/03/27 12:46:28;;;;;;;15.85;3.05;;;;;;;;;;5069134;28;39329;-79
2021/03/27 12:48:54;;;;;;;14.98;3.55;;;;;;;;;;5059193;28;38279;-79
2021/03/27 12:51:32;;;;;;;18.55;2.47;;;;;;;;;;5064860;28;37563;-79
2021/03/27 12:54:06;;;;;;;18.52;2.83;;;;;;;;;;5070524;28;38732;-79
2021/03/27 12:57:09;;;;;;;18.27;3.35;;;;;;;;;;5071375;28;48812;-79
2021/03/27 12:59:35;;;;;;;15.05;2.80;;;;;;;;;;5029524;28;47079;-79
2021/03/27 13:02:20;;;;;;;13.48;2.95;;;;;;;;;;5063255;28;36939;-79
2021/03/27 13:05:01;;;;;;;17.88;3.83;;;;;;;;;;5070103;28;48776;-79
2021/03/27 13:07:33;;;;;;;15.98;2.95;;;;;;;;;;5067546;28;46637;-79
2021/03/27 13:10:08;;;;;;;15.82;2.75;;;;;;;;;;5070017;28;39852;-80
2021/03/27 13:12:38;;;;;;;13.60;2.88;;;;;;;;;;5069027;28;47428;-78
2021/03/27 13:15:22;;;;;;;16.15;2.63;;;;;;;;;;5066982;28;40584;-78
2021/03/27 13:18:01;;;;;;;11.65;2.58;;;;;;;;;;5068279;28;39561;-79
2021/03/27 13:20:33;;;;;;;18.87;2.50;;;;;;;;;;5058507;28;47537;-79
2021/03/27 13:23:04;;;;;;;16.17;3.40;;;;;;;;;;5069852;28;37517;-79
2021/03/27 13:25:36;;;;;;;18.35;2.90;;;;;;;;;;5066997;28;47364;-79
2021/03/27 13:28:05;;;;;;;12.43;2.58;;;;;;;;;;5050647;28;39484;-79
2021/03/27 13:30:31;;;;;;;14.00;2.83;;;;;;;;;;5071146;28;39692;-79
2021/03/27 13:33:10;;;;;;;12.23;2.67;;;;;;;;;;5068544;28;37871;-79
2021/03/27 13:35:51;;;;;;;10.38;2.40;;;;;;;;;;5067004;28;46625;-79
2021/03/27 13:38:38;;;;;;;17.07;2.17;;;;;;;;;;5067394;28;38921;-80
2021/03/27 13:41:23;;;;;;;12.17;2.10;;;;;;;;;;5066492;28;38759;-79
2021/03/27 13:43:52;;;;;;;19.42;3.25;;;;;;;;;;5063337;28;37704;-80
2021/03/27 13:46:27;;;;;;;8.83;2.50;;;;;;;;;;5067201;28;39594;-80
2021/03/27 13:49:23;;;;;;;12.65;2.65;;;;;;;;;;5068127;28;38969;-79
2021/03/27 13:51:55;;;;;;;17.40;2.97;;;;;;;;;;5022026;28;47089;-79
2021/03/27 13:54:30;;;;;;;11.35;2.65;;;;;;;;;;5052079;28;38313;-79
2021/03/27 13:57:02;;;;;;;16.27;2.58;;;;;;;;;;5069281;28;40035;-80
2021/03/27 13:59:41;;;;;;;16.40;3.55;;;;;;;;;;5064988;28;47431;-80
2021/03/27 14:02:41;;;;;;;15.27;2.40;;;;;;;;;;5066259;28;39485;-79
2021/03/27 14:05:26;;;;;;;16.83;3.40;;;;;;;;;;5034584;28;37015;-79
2021/03/27 14:08:12;;;;;;;22.60;3.20;;;;;;;;;;5069130;28;39317;-80
2021/03/27 14:10:57;;;;;;;13.90;2.73;;;;;;;;;;5067244;28;48508;-79
2021/03/27 14:13:34;;;;;;;15.13;3.37;;;;;;;;;;5067005;28;39508;-79
2021/03/27 14:16:19;;;;;;;12.27;2.10;;;;;;;;;;5069890;28;37415;-79
2021/03/27 14:18:48;;;;;;;16.37;3.07;;;;;;;;;;5068250;28;47043;-79
2021/03/27 14:21:25;;;;;;;14.23;2.77;;;;;;;;;;5064405;28;40520;-79
2021/03/27 14:24:06;;;;;;;13.83;3.03;;;;;;;;;;5069147;28;39077;-79
2021/03/27 14:26:59;;;;;;;15.53;3.27;;;;;;;;;;5071861;28;49282;-79
2021/03/27 14:29:48;;;;;;;18.77;3.20;;;;;;;;;;5072147;28;38471;-80
2021/03/27 14:32:14;;;;;;;16.33;3.17;;;;;;;;;;5070077;28;39180;-79
2021/03/27 14:35:02;;;;;;;19.73;2.60;;;;;;;;;;5068564;28;38763;-79
2021/03/27 14:37:37;;;;;;;19.42;3.00;;;;;;;;;;5071355;28;48921;-80
2021/03/27 14:40:23;;;;;;;15.18;2.83;;;;;;;;;;5064054;28;39781;-79
2021/03/27 14:42:49;;;;;;;17.87;3.57;;;;;;;;;;5070149;28;39520;-79
2021/03/27 14:45:21;;;;;;;18.33;3.13;;;;;;;;;;5069508;28;38332;-79
2021/03/27 14:47:47;;;;;;;13.93;2.50;;;;;;;;;;5070193;28;37714;-79
2021/03/27 14:50:19;;;;;;;11.85;2.42;;;;;;;;;;5063258;28;40363;-80
2021/03/27 14:52:48;;;;;;;8.82;2.53;;;;;;;;;;5060735;28;38452;-79
2021/03/27 14:55:18;;;;;;;11.27;2.45;;;;;;;;;;5052886;28;39659;-79
2021/03/27 14:57:55;;;;;;;11.60;2.92;;;;;;;;;;5067955;28;35731;-78
2021/03/27 15:00:21;;;;;;;14.02;3.05;;;;;;;;;;5066855;28;39958;-78
2021/03/27 15:03:08;;;;;;;11.18;2.85;;;;;;;;;;5070478;28;39735;-79
2021/03/27 15:05:36;;;;;;;14.77;2.60;;;;;;;;;;5047828;28;48253;-79
2021/03/27 15:08:04;;;;;;;14.98;2.55;;;;;;;;;;5048303;28;36947;-79
2021/03/27 15:10:37;;;;;;;10.32;2.25;;;;;;;;;;5061907;28;40807;-78
2021/03/27 15:13:22;;;;;;;19.67;3.10;;;;;;;;;;5069422;28;38784;-80
2021/03/27 15:16:01;;;;;;;9.00;2.13;;;;;;;;;;5071263;28;38789;-79
2021/03/27 15:18:46;;;;;;;17.67;2.78;;;;;;;;;;5068871;28;38229;-79
2021/03/27 15:21:15;;;;;;;16.38;3.10;;;;;;;;;;5066287;28;38340;-79
2021/03/27 15:23:49;;;;;;;14.15;2.83;;;;;;;;;;5071231;28;38957;-79
2021/03/27 15:29:26;;;;;;;8.05;2.33;;;;;;;;;;5069537;28;38359;-79
2021/03/27 15:31:57;;;;;;;8.93;2.10;;;;;;;;;;5069477;28;39990;-79
2021/03/27 15:34:30;;;;;;;5.95;1.88;;;;;;;;;;5064530;28;39139;-80